Terminal Aerodrome Forecast
Issued by NWS

Home | Current Version | Previous Version | Text Only | Print | Product List | Glossary On
Versions: 1 2 3 4 5 6 7 8 9 10 11 12 13 14 15
933
FTUS43 KOAX 081204 CCA
TAFSNY
TAF COR
KSNY 081204Z 0812/0912 31014KT P6SM BKN250
     FM081600 31016G24KT P6SM BKN250
     FM090000 30014KT P6SM SCT080=

USA.gov is the U.S. government's official web portal to all federal, state and local government web resources and services.